BT305 / YL-BAF 7700 Squawk Report (18th of February, 2020)

Aircraft DH8D Reg No. YL-BAF Age N/A
Model DHC-8 Turboprop engines 2 First flight N/A
Registered 05-08-10 Rollout N/A Delivered 27-07-10
Construction No. 4293 Line No. N/A Series Q-402NG
ADSHEX 502C69 Airline name airBaltic Owner Nordic Aviation Capital
Airfield based Riga-Skulte~Riga~YL First tracked N/A

Flight history for YL-BAF

Route Flight No Date Playback
Arlanda (ARN) - Riga Intl (RIX) BT110 2020-03-16 19:35:00
Riga Intl (RIX) - Arlanda (ARN) BT109 2020-03-16 18:02:00
Helsinki Vantaa (HEL) - Riga Intl (RIX) BT306 2020-03-16 17:07:00
Riga Intl (RIX) - Helsinki Vantaa (HEL) BT305 2020-03-16 14:47:00
Billund (BLL) - Riga Intl (RIX) BT144 2020-03-16 13:07:00
Riga Intl (RIX) - Billund (BLL) BT143 2020-03-16 07:25:00
Liepaja Intl (LPX) - Riga Intl (RIX) BT20 2020-03-16 05:32:00
???? N/A 2020-03-16 03:46:00
Vilnius Intl (VNO) - Riga Intl (RIX) BT348 2020-03-15 21:40:00
Riga Intl (RIX) - Vilnius Intl (VNO) BT347 2020-03-15 16:47:00
Palanga International (PLQ) - Riga Intl (RIX) BT36 2020-03-15 13:43:00
Riga Intl (RIX) - Palanga International (PLQ) BT35 2020-03-15 13:20:00
Arlanda (ARN) - Riga Intl (RIX) BT110 2020-03-14 20:39:00
Riga Intl (RIX) - Arlanda (ARN) BT109 2020-03-14 18:53:00
Helsinki Vantaa (HEL) - Riga Intl (RIX) BT306 2020-03-14 17:55:00
Riga Intl (RIX) - Helsinki Vantaa (HEL) BT305 2020-03-14 14:40:00
Boryspil Intl (KBP) - Riga Intl (RIX) BT401 2020-03-14 09:30:00
Riga Intl (RIX) - Boryspil Intl (KBP) BT400 2020-03-14 06:58:00
Tallinn (TLL) - Riga Intl (RIX) BT318 2020-03-13 20:14:00
Vilnius Intl (VNO) - Tallinn (TLL) BT335 2020-03-13 18:54:00
Time Lat Lon Altitude Heading Speed Vertical Rate
2020-02-18 13:54:32 GMT 56.930466 23.972340 300 186 111 -512
2020-02-18 13:52:53 GMT 56.985168 23.981352 1,350 186 111 -512
2020-02-18 13:52:33 GMT 56.994690 23.982983 1,550 185 127 -768
2020-02-18 13:52:14 GMT 57.006271 23.984785 1,800 186 143 -768
2020-02-18 13:52:03 GMT 57.014236 23.986158 1,950 186 144 -704
2020-02-18 13:51:46 GMT 57.024582 23.988047 2,150 186 140 -512
2020-02-18 13:51:43 GMT 57.026630 23.988470 2,175 186 141 -768
2020-02-18 13:51:33 GMT 57.033188 23.989506 2,325 185 147 -512
2020-02-18 13:51:22 GMT 57.041573 23.990862 2,525 186 160 -512
2020-02-18 13:51:11 GMT 57.049988 23.992167 2,700 186 168 -960
2020-02-18 13:50:44 GMT 57.071228 23.995825 2,900 186 168 -1536
2020-02-18 13:50:41 GMT 57.072693 23.996115 3,150 186 166 -1024
2020-02-18 13:50:27 GMT 57.082771 23.997772 3,350 185 168 -960
2020-02-18 13:50:11 GMT 57.096039 23.999805 3,625 187 171 -1152
2020-02-18 13:49:47 GMT 57.115631 24.004183 3,975 189 174 -704
2020-02-18 13:49:40 GMT 57.120434 24.005482 4,075 189 175 -960
2020-02-18 13:49:29 GMT 57.129745 24.008051 4,225 189 178 -768
2020-02-18 13:49:15 GMT 57.140533 24.011049 4,400 189 186 -768
2020-02-18 13:49:08 GMT 57.146969 24.012657 4,475 188 186 -512
2020-02-18 13:49:02 GMT 57.152370 24.013899 4,475 188 186 -576
2020-02-18 13:48:59 GMT 57.154449 24.014311 4,600 186 184 -704
2020-02-18 13:48:49 GMT 57.163879 24.016285 4,650 195 184 -704
2020-02-18 13:48:39 GMT 57.171570 24.019461 4,750 199 185 -960
2020-02-18 13:48:29 GMT 57.180019 24.026302 4,875 205 195 -768
2020-02-18 13:48:17 GMT 57.189655 24.034452 5,000 205 200 -832
2020-02-18 13:48:08 GMT 57.196777 24.040300 5,375 204 204 -960
2020-02-18 13:47:58 GMT 57.206223 24.047956 5,275 204 203 -832
2020-02-18 13:47:47 GMT 57.214645 24.054651 5,425 204 201 -768
2020-02-18 13:47:38 GMT 57.223080 24.061388 5,575 203 198 -704
2020-02-18 13:47:26 GMT 57.232857 24.068918 5,650 204 194 -704
2020-02-18 13:47:17 GMT 57.240738 24.074993 5,925 203 197 -704
2020-02-18 13:47:07 GMT 57.248978 24.081345 5,925 203 200 -704
2020-02-18 13:46:55 GMT 57.259533 24.089384 6,100 203 201 -640
2020-02-18 13:46:47 GMT 57.266647 24.094734 6,200 203 202 -576
2020-02-18 13:46:35 GMT 57.278618 24.103827 6,375 203 207 -960
2020-02-18 13:46:24 GMT 57.286194 24.109755 6,500 204 211 -1024
2020-02-18 13:46:15 GMT 57.293980 24.116053 6,650 204 217 -768
2020-02-18 13:46:06 GMT 57.303772 24.124002 6,800 205 222 -960
2020-02-18 13:45:55 GMT 57.313160 24.131824 6,925 205 226 -960
2020-02-18 13:45:44 GMT 57.323318 24.140310 7,125 204 226 -1088
2020-02-18 13:45:34 GMT 57.332886 24.148035 7,300 204 225 -1024
2020-02-18 13:45:25 GMT 57.342487 24.155392 7,475 202 220 -896
2020-02-18 13:45:14 GMT 57.352386 24.162283 7,650 200 212 -832
2020-02-18 13:45:04 GMT 57.361633 24.167862 7,800 197 203 -960
2020-02-18 13:44:54 GMT 57.370377 24.172840 7,975 197 201 -1152
2020-02-18 13:44:44 GMT 57.379684 24.178074 8,175 197 207 -1216
2020-02-18 13:44:33 GMT 57.389458 24.183565 8,350 197 215 -1216
2020-02-18 13:44:22 GMT 57.399628 24.189148 8,550 197 224 -1280
2020-02-18 13:44:12 GMT 57.409710 24.194818 8,750 198 230 -1216
2020-02-18 13:44:03 GMT 57.419952 24.201078 8,950 199 238 -1216
2020-02-18 13:43:53 GMT 57.430801 24.207859 9,150 199 245 -1152
2020-02-18 13:43:44 GMT 57.440964 24.214382 9,325 201 254 -1088
2020-02-18 13:43:31 GMT 57.454056 24.223738 9,550 202 259 -1216
2020-02-18 13:43:22 GMT 57.465340 24.231764 9,750 202 264 -1216
2020-02-18 13:43:08 GMT 57.480515 24.242308 10,000 201 261 64
2020-02-18 13:43:02 GMT 57.486465 24.246397 10,000 201 261 0
2020-02-18 13:42:51 GMT 57.500015 24.255753 10,000 201 261 0
2020-02-18 13:42:41 GMT 57.511734 24.263649 10,000 200 262 64
2020-02-18 13:42:30 GMT 57.523956 24.271717 10,000 199 263 -64
2020-02-18 13:42:19 GMT 57.535400 24.278278 10,000 196 264 -64
2020-02-18 13:42:12 GMT 57.544106 24.282709 10,000 196 264 0
2020-02-18 13:42:01 GMT 57.572250 24.296951 10,000 196 264 0
2020-02-18 13:41:48 GMT 57.572250 24.296951 10,000 196 263 0
2020-02-18 13:41:33 GMT 57.590973 24.306479 10,000 196 264 0
2020-02-18 13:41:29 GMT 57.596466 24.309311 10,000 196 264 64
2020-02-18 13:41:21 GMT 57.604904 24.313454 10,000 195 263 0
2020-02-18 13:41:06 GMT 57.622330 24.322271 10,000 196 264 -64
2020-02-18 13:41:00 GMT 57.628551 24.325325 10,000 195 263 64
2020-02-18 13:40:57 GMT 57.633041 24.327593 10,000 195 263 64
2020-02-18 13:40:43 GMT 57.650574 24.336176 10,000 195 262 0
2020-02-18 13:40:35 GMT 57.657787 24.339767 10,000 195 262 0
2020-02-18 13:40:29 GMT 57.665607 24.343664 10,000 196 261 64
2020-02-18 13:40:22 GMT 57.674034 24.347918 10,000 196 261 0
2020-02-18 13:40:18 GMT 57.677719 24.349823 10,000 196 261 64
2020-02-18 13:40:08 GMT 57.689941 24.356003 10,000 196 261 -64
2020-02-18 13:39:59 GMT 57.700424 24.361238 10,000 195 261 -64
2020-02-18 13:39:42 GMT 57.720383 24.371109 10,000 196 261 -64
2020-02-18 13:39:39 GMT 57.723770 24.372826 10,000 196 261 0
2020-02-18 13:39:28 GMT 57.736645 24.379486 10,000 196 261 64
2020-02-18 13:39:17 GMT 57.748981 24.385803 10,000 196 261 0
2020-02-18 13:39:07 GMT 57.760479 24.391663 10,000 196 260 0
2020-02-18 13:38:58 GMT 57.771187 24.397156 10,000 196 260 64
2020-02-18 13:38:54 GMT 57.776001 24.399572 10,000 196 260 -64
2020-02-18 13:38:47 GMT 57.784035 24.403656 10,000 196 260 0
2020-02-18 13:38:36 GMT 57.796555 24.410204 10,000 196 259 -64
2020-02-18 13:38:26 GMT 57.808151 24.416199 10,000 196 259 64
2020-02-18 13:38:16 GMT 57.824387 24.424557 10,000 196 259 64
2020-02-18 13:38:05 GMT 57.834137 24.429518 10,000 196 259 -64
2020-02-18 13:38:01 GMT 57.838989 24.431999 10,000 196 259 0
2020-02-18 13:37:55 GMT 57.847115 24.436249 10,000 196 259 -64
2020-02-18 13:37:52 GMT 57.847115 24.436249 10,000 196 259 64
2020-02-18 13:37:45 GMT 57.855167 24.440552 10,000 196 259 -64
2020-02-18 13:37:36 GMT 57.865585 24.445997 10,000 196 258 -64
2020-02-18 13:37:33 GMT 57.870251 24.448517 10,000 196 258 0
2020-02-18 13:37:26 GMT 57.878036 24.452642 10,000 196 258 0
2020-02-18 13:37:23 GMT 57.882820 24.455109 10,000 196 259 -64
2020-02-18 13:37:17 GMT 57.888546 24.458221 10,000 197 259 0
2020-02-18 13:37:11 GMT 57.895065 24.461679 10,000 197 259 -64
2020-02-18 13:37:05 GMT 57.902046 24.465454 10,000 197 259 64
2020-02-18 13:37:02 GMT 57.905411 24.467350 10,000 197 259 0
2020-02-18 13:36:55 GMT 57.913376 24.471781 10,000 197 259 0
2020-02-18 13:36:50 GMT 57.919270 24.475159 10,000 198 259 64
2020-02-18 13:36:45 GMT 57.923923 24.478088 10,000 200 259 -128
2020-02-18 13:36:41 GMT 57.929371 24.481934 10,000 203 257 0
2020-02-18 13:36:36 GMT 57.934982 24.486134 10,000 203 257 0
2020-02-18 13:36:24 GMT 57.948177 24.496216 10,000 203 257 0
2020-02-18 13:36:17 GMT 57.955814 24.502075 10,000 203 258 0
2020-02-18 13:36:13 GMT 57.960068 24.505360 10,000 203 258 0
2020-02-18 13:36:05 GMT 57.969086 24.512360 10,000 203 258 0
2020-02-18 13:35:54 GMT 57.980576 24.521219 10,000 203 258 0
2020-02-18 13:35:44 GMT 57.991562 24.529636 10,000 203 258 0
2020-02-18 13:35:34 GMT 58.004135 24.539154 10,000 202 258 0
2020-02-18 13:35:24 GMT 58.014313 24.546824 10,000 202 258 -64
2020-02-18 13:35:13 GMT 58.026443 24.555861 10,000 202 259 -64
2020-02-18 13:35:05 GMT 58.038258 24.564697 10,000 202 258 0
2020-02-18 13:35:02 GMT 58.038258 24.564697 10,000 203 258 0
2020-02-18 13:34:55 GMT 58.047195 24.571564 10,000 203 258 -64
2020-02-18 13:34:51 GMT 58.057114 24.579163 10,000 203 258 0
2020-02-18 13:34:43 GMT 58.059811 24.581177 10,000 203 257 0
2020-02-18 13:34:39 GMT 58.063751 24.584213 10,000 203 257 0
2020-02-18 13:34:35 GMT 58.068375 24.587757 10,000 203 257 0
2020-02-18 13:34:31 GMT 58.079910 24.596882 10,000 203 257 0
2020-02-18 13:34:25 GMT 58.079910 24.596882 10,000 203 257 0
2020-02-18 13:34:21 GMT 58.083740 24.599854 10,000 203 257 0
2020-02-18 13:34:15 GMT 58.094727 24.608459 10,000 203 258 0
2020-02-18 13:34:11 GMT 58.094727 24.608459 10,000 203 258 0
2020-02-18 13:34:04 GMT 58.102066 24.614071 10,000 203 257 0
2020-02-18 13:34:00 GMT 58.106461 24.617437 10,000 203 257 0
2020-02-18 13:33:54 GMT 58.117023 24.625580 10,000 203 257 0
2020-02-18 13:33:51 GMT 58.117023 24.625580 10,000 203 257 0
2020-02-18 13:33:44 GMT 58.124954 24.631790 10,000 203 256 0
2020-02-18 13:33:40 GMT 58.128479 24.634537 10,000 203 256 0
2020-02-18 13:33:34 GMT 58.135971 24.640503 10,000 203 257 0
2020-02-18 13:33:30 GMT 58.139420 24.643131 10,000 203 257 0
2020-02-18 13:33:21 GMT 58.149239 24.650848 10,000 203 256 0
2020-02-18 13:33:18 GMT 58.152603 24.653408 10,000 203 256 0
2020-02-18 13:33:14 GMT 58.157898 24.657623 10,000 203 256 0
2020-02-18 13:33:09 GMT 58.162273 24.661011 10,000 203 256 0
2020-02-18 13:33:04 GMT 58.173248 24.669710 10,000 203 255 0
2020-02-18 13:32:59 GMT 58.173248 24.669710 10,000 203 255 0
2020-02-18 13:32:49 GMT 58.184921 24.679014 10,000 203 255 -64
2020-02-18 13:32:43 GMT 58.191284 24.684065 10,000 204 254 -64
2020-02-18 13:32:39 GMT 58.195084 24.687164 10,000 204 254 -64
2020-02-18 13:32:35 GMT 58.202179 24.692924 10,000 204 251 -64
2020-02-18 13:32:32 GMT 58.202774 24.693420 10,000 204 251 -64
2020-02-18 13:32:29 GMT 58.206078 24.696167 10,000 204 251 -64
2020-02-18 13:32:22 GMT 58.213440 24.702227 10,025 204 248 128
2020-02-18 13:32:19 GMT 58.217064 24.705231 10,025 204 248 192
2020-02-18 13:32:13 GMT 58.223816 24.711090 10,000 205 246 -64
2020-02-18 13:32:09 GMT 58.227402 24.714277 10,000 206 246 0
2020-02-18 13:32:02 GMT 58.234680 24.720833 10,000 206 247 0
2020-02-18 13:31:58 GMT 58.238480 24.724289 10,000 206 247 -64
2020-02-18 13:31:51 GMT 58.248440 24.733246 10,000 206 248 0
2020-02-18 13:31:48 GMT 58.248440 24.733246 10,000 206 248 0
2020-02-18 13:31:41 GMT 58.255692 24.739704 10,000 203 252 0
2020-02-18 13:31:37 GMT 58.259892 24.743225 10,000 204 251 64
2020-02-18 13:31:34 GMT 58.264595 24.746979 10,000 203 252 0
2020-02-18 13:31:30 GMT 58.268925 24.750183 10,000 202 253 0
2020-02-18 13:31:27 GMT 58.271072 24.751755 10,000 201 254 64
2020-02-18 13:31:21 GMT 58.277908 24.755951 10,000 196 259 64
2020-02-18 13:31:18 GMT 58.281677 24.757874 10,000 194 260 0
2020-02-18 13:31:12 GMT 58.289684 24.760803 10,000 188 266 0
2020-02-18 13:31:07 GMT 58.294601 24.762032 10,000 188 267 0
2020-02-18 13:31:01 GMT 58.301743 24.763824 10,000 188 267 64
2020-02-18 13:30:57 GMT 58.306679 24.765015 10,000 188 268 64
2020-02-18 13:30:50 GMT 58.315247 24.767347 9,975 189 272 64
2020-02-18 13:30:47 GMT 58.319138 24.768412 9,975 189 274 64
2020-02-18 13:30:39 GMT 58.331406 24.771955 9,975 190 280 0
2020-02-18 13:30:36 GMT 58.332607 24.772339 9,975 190 281 0
2020-02-18 13:30:31 GMT 58.340382 24.774811 9,975 190 289 64
2020-02-18 13:30:26 GMT 58.345551 24.776474 9,975 190 290 0
2020-02-18 13:30:20 GMT 58.355232 24.779480 10,000 189 295 -64
2020-02-18 13:30:16 GMT 58.359283 24.780670 10,000 189 296 -128
2020-02-18 13:30:09 GMT 58.368668 24.783472 10,000 189 296 0
2020-02-18 13:30:06 GMT 58.372784 24.784698 10,000 189 296 64
2020-02-18 13:29:59 GMT 58.386887 24.788877 10,000 189 295 0
2020-02-18 13:29:56 GMT 58.386887 24.788877 10,000 189 295 0
2020-02-18 13:29:50 GMT 58.395264 24.791359 10,000 189 295 0
2020-02-18 13:29:46 GMT 58.400665 24.792953 10,000 189 295 0
2020-02-18 13:29:39 GMT 58.408955 24.795502 10,000 190 295 -64
2020-02-18 13:29:36 GMT 58.413933 24.796967 10,000 190 294 0
2020-02-18 13:29:29 GMT 58.422920 24.799713 10,000 190 294 0
2020-02-18 13:29:24 GMT 58.430180 24.801910 10,000 189 294 -64
2020-02-18 13:29:19 GMT 58.437443 24.804108 10,000 190 293 -64
2020-02-18 13:29:15 GMT 58.441544 24.805357 10,000 190 293 -64
2020-02-18 13:29:09 GMT 58.450104 24.808016 10,000 190 292 64
2020-02-18 13:29:05 GMT 58.455551 24.809788 10,000 190 293 64
2020-02-18 13:28:59 GMT 58.463604 24.812347 10,000 190 292 0
2020-02-18 13:28:55 GMT 58.468819 24.814087 10,000 190 292 64
2020-02-18 13:28:49 GMT 58.476780 24.816650 10,000 190 291 -64
2020-02-18 13:28:45 GMT 58.482365 24.818481 10,000 190 291 0
2020-02-18 13:28:38 GMT 58.496284 24.822968 10,000 190 291 0
2020-02-18 13:28:34 GMT 58.496284 24.822968 10,000 190 291 0
2020-02-18 13:28:28 GMT 58.504246 24.825623 10,000 191 290 0
2020-02-18 13:28:24 GMT 58.509201 24.827417 10,000 191 290 64
2020-02-18 13:28:18 GMT 58.517395 24.830254 10,000 191 290 64
2020-02-18 13:28:14 GMT 58.522728 24.832123 10,000 191 290 64
2020-02-18 13:28:07 GMT 58.531433 24.835327 10,000 191 290 -64
2020-02-18 13:28:04 GMT 58.536552 24.837158 10,000 190 290 -64
2020-02-18 13:27:57 GMT 58.545444 24.839996 10,000 190 290 0
2020-02-18 13:27:54 GMT 58.549820 24.841461 10,000 190 290 -64
2020-02-18 13:27:47 GMT 58.557873 24.844025 10,000 190 290 0
2020-02-18 13:27:43 GMT 58.563629 24.845936 10,000 190 290 0
2020-02-18 13:27:37 GMT 58.576820 24.850067 10,000 190 290 0
2020-02-18 13:27:33 GMT 58.576820 24.850067 10,000 190 290 0
2020-02-18 13:27:27 GMT 58.586597 24.853271 10,000 190 290 0
2020-02-18 13:27:23 GMT 58.590775 24.854530 10,000 190 290 0
2020-02-18 13:27:17 GMT 58.598328 24.856922 10,000 190 289 0
2020-02-18 13:27:12 GMT 58.604370 24.858871 10,000 190 289 64
2020-02-18 13:27:06 GMT 58.612247 24.861420 10,000 190 290 0
2020-02-18 13:27:02 GMT 58.617508 24.863068 10,000 190 290 0
2020-02-18 13:26:56 GMT 58.625519 24.865692 10,000 190 289 0
2020-02-18 13:26:52 GMT 58.638519 24.869946 10,000 208 273 128
2020-02-18 13:26:46 GMT 58.644333 24.871805 10,000 190 289 0
2020-02-18 13:26:42 GMT 58.644333 24.871805 10,000 190 289 0
2020-02-18 13:26:37 GMT 58.651932 24.874199 10,000 190 288 64
2020-02-18 13:26:32 GMT 58.657776 24.876068 10,000 190 288 0
2020-02-18 13:26:25 GMT 58.667038 24.878983 10,000 190 287 0
2020-02-18 13:26:22 GMT 58.671181 24.880280 10,000 190 287 0
2020-02-18 13:26:16 GMT 58.678619 24.882704 10,000 190 288 0
2020-02-18 13:26:11 GMT 58.684753 24.884743 10,000 190 287 0
2020-02-18 13:26:06 GMT 58.691990 24.887146 10,000 191 287 0
2020-02-18 13:26:01 GMT 58.698135 24.889252 10,000 190 287 0
2020-02-18 13:25:55 GMT 58.706375 24.891998 10,000 190 287 -64
2020-02-18 13:25:51 GMT 58.711166 24.893513 10,000 190 287 -64
2020-02-18 13:25:44 GMT 58.720715 24.896667 10,000 191 285 -64
2020-02-18 13:25:41 GMT 58.733551 24.901400 10,000 208 273 128
2020-02-18 13:25:35 GMT 58.733551 24.901400 10,000 194 283 256
2020-02-18 13:25:30 GMT 58.737797 24.903534 10,000 195 282 256
2020-02-18 13:25:25 GMT 58.744549 24.908295 10,000 205 276 -192
2020-02-18 13:25:20 GMT 58.749847 24.913361 10,000 208 273 128
2020-02-18 13:25:15 GMT 58.755844 24.919119 10,000 204 276 0
2020-02-18 13:25:10 GMT 58.761475 24.923283 10,000 197 279 0
2020-02-18 13:25:03 GMT 58.770573 24.926971 10,000 188 285 0
2020-02-18 13:25:00 GMT 58.775024 24.927536 10,000 180 291 -64
2020-02-18 13:24:54 GMT 58.789444 24.924257 10,000 168 299 0
2020-02-18 13:24:49 GMT 58.789444 24.924257 10,000 165 300 -64
2020-02-18 13:24:45 GMT 58.796036 24.920105 10,000 155 308 0
2020-02-18 13:24:39 GMT 58.801903 24.914978 9,975 148 313 -64
2020-02-18 13:24:34 GMT 58.808510 24.907104 10,000 142 317 0
2020-02-18 13:24:29 GMT 58.814377 24.898041 10,000 138 320 0
2020-02-18 13:24:24 GMT 58.819824 24.887329 10,000 129 326 0
2020-02-18 13:24:19 GMT 58.824326 24.875881 9,975 83 339 -64
2020-02-18 13:24:12 GMT 58.829361 24.859049 10,000 115 333 0
2020-02-18 13:24:09 GMT 58.834068 24.833954 10,000 54 329 0
2020-02-18 13:24:03 GMT 58.834068 24.833954 10,000 103 338 64
2020-02-18 13:23:58 GMT 58.836117 24.803375 9,975 90 341 64
2020-02-18 13:23:54 GMT 58.836117 24.803375 9,975 90 341 64
2020-02-18 13:23:48 GMT 58.835838 24.788544 9,975 83 339 -64
2020-02-18 13:23:43 GMT 58.834579 24.771866 10,000 79 340 -64
2020-02-18 13:23:38 GMT 58.833069 24.757248 10,000 78 340 64
2020-02-18 13:23:33 GMT 58.831741 24.742493 10,000 82 339 -128
2020-02-18 13:23:28 GMT 58.830872 24.727301 10,000 83 339 128
2020-02-18 13:23:23 GMT 58.829773 24.711706 10,000 77 338 -64
2020-02-18 13:23:20 GMT 58.828529 24.701019 10,000 74 338 -64
2020-02-18 13:23:16 GMT 58.827412 24.693787 10,000 72 339 -64
2020-02-18 13:23:12 GMT 58.825104 24.682116 10,000 66 336 -64
2020-02-18 13:23:07 GMT 58.817047 24.655182 10,025 54 329 0
2020-02-18 13:23:02 GMT 58.817047 24.655182 10,025 53 329 0
2020-02-18 13:22:57 GMT 58.812420 24.644623 10,025 49 326 -64
2020-02-18 13:22:52 GMT 58.806694 24.634186 10,025 38 318 -64
2020-02-18 13:22:47 GMT 58.801346 24.626652 10,025 32 313 0
2020-02-18 13:22:42 GMT 58.794388 24.619032 10,025 25 306 0
2020-02-18 13:22:37 GMT 58.788528 24.614513 10,025 16 299 -320
2020-02-18 13:22:30 GMT 58.778625 24.609650 10,050 11 293 -128
2020-02-18 13:22:27 GMT 58.774761 24.608002 10,050 11 293 -128
2020-02-18 13:22:21 GMT 58.767975 24.605389 10,050 10 291 -256
2020-02-18 13:22:16 GMT 58.760937 24.602966 10,075 9 288 -256
2020-02-18 13:22:10 GMT 58.752777 24.600073 10,100 10 286 -128
2020-02-18 13:22:06 GMT 58.748180 24.598389 10,125 11 286 -960
2020-02-18 13:22:02 GMT 58.741104 24.595465 10,200 11 287 -1600
2020-02-18 13:21:56 GMT 58.734680 24.592896 10,350 11 290 -1600
2020-02-18 13:21:50 GMT 58.726685 24.589794 10,500 11 293 -1536
2020-02-18 13:21:46 GMT 58.721039 24.587494 10,625 11 297 -1472
2020-02-18 13:21:40 GMT 58.713078 24.584290 10,775 11 301 -1600
2020-02-18 13:21:36 GMT 58.707584 24.582001 10,875 11 305 -2112
2020-02-18 13:21:31 GMT 58.700592 24.579163 11,075 11 307 -2624
2020-02-18 13:21:25 GMT 58.693295 24.576233 11,300 11 309 -2560
2020-02-18 13:21:20 GMT 58.686031 24.573395 11,525 11 310 -2624
2020-02-18 13:21:15 GMT 58.678677 24.570557 11,750 11 312 -2624
2020-02-18 13:21:11 GMT 58.671646 24.567810 11,975 11 313 -2624
2020-02-18 13:21:05 GMT 58.664246 24.564972 12,200 11 315 -2560
2020-02-18 13:20:59 GMT 58.656517 24.561951 12,425 11 317 -2560
2020-02-18 13:20:54 GMT 58.649277 24.559139 12,650 11 319 -2560
2020-02-18 13:20:50 GMT 58.642414 24.556549 12,850 11 320 -2432
2020-02-18 13:20:44 GMT 58.634407 24.553528 13,075 11 323 -2624
2020-02-18 13:20:40 GMT 58.627796 24.551056 13,275 11 323 -2752
2020-02-18 13:20:34 GMT 58.619835 24.548035 13,475 10 325 -2880
2020-02-18 13:20:29 GMT 58.611465 24.544964 13,800 10 327 -2816
2020-02-18 13:20:24 GMT 58.604893 24.542542 14,025 10 328 -2880
2020-02-18 13:20:20 GMT 58.597504 24.539824 14,250 10 328 -3072
2020-02-18 13:20:14 GMT 58.589203 24.536774 14,550 10 329 -3200
2020-02-18 13:20:09 GMT 58.582500 24.534302 23,125 11 330 -3264
2020-02-18 13:20:03 GMT 58.574066 24.531141 15,100 11 329 -3264
2020-02-18 13:19:58 GMT 58.565826 24.527952 15,400 11 329 -3200
2020-02-18 13:19:54 GMT 58.559177 24.525330 15,650 11 330 -3200
2020-02-18 13:19:47 GMT 58.549446 24.521667 16,000 10 330 -3264
2020-02-18 13:19:43 GMT 58.543163 24.519379 16,225 10 330 -3200
2020-02-18 13:19:37 GMT 58.534836 24.516434 16,525 10 331 -3200
2020-02-18 13:19:33 GMT 58.528198 24.514132 16,775 10 331 -3456
2020-02-18 13:19:29 GMT 58.521423 24.511738 23,125 10 331 -3648
2020-02-18 13:19:23 GMT 58.513000 24.508726 17,375 10 330 -4032
2020-02-18 13:19:18 GMT 58.505814 24.506245 17,700 10 327 -4096
2020-02-18 13:19:12 GMT 58.496704 24.503082 18,125 10 325 -3712
2020-02-18 13:19:08 GMT 58.490513 24.500885 23,125 10 324 -3968
2020-02-18 13:19:02 GMT 58.482376 24.498007 18,750 10 321 -4160
2020-02-18 13:18:58 GMT 58.475693 24.495703 19,075 10 318 -4032
2020-02-18 13:18:52 GMT 58.467979 24.493011 19,725 10 315 -2880
2020-02-18 13:18:48 GMT 58.461456 24.490740 19,650 10 315 -2880
2020-02-18 13:18:41 GMT 58.452385 24.487610 19,950 10 315 -2880
2020-02-18 13:18:37 GMT 58.446579 24.485514 20,150 10 315 -2944
2020-02-18 13:18:32 GMT 58.438705 24.482855 20,425 10 315 -2880
2020-02-18 13:18:26 GMT 58.430969 24.480108 21,475 10 315 -2944
2020-02-18 13:18:21 GMT 58.423756 24.477631 20,950 10 314 -2880
2020-02-18 13:18:17 GMT 58.417236 24.475500 21,150 10 315 -2816
2020-02-18 13:18:11 GMT 58.409637 24.472933 21,350 9 315 -2816
2020-02-18 13:18:06 GMT 58.402313 24.470539 21,650 9 316 -2816
2020-02-18 13:18:01 GMT 58.394394 24.467970 21,900 9 316 -2816
2020-02-18 13:17:56 GMT 58.387756 24.465933 22,125 9 317 -2816
2020-02-18 13:17:51 GMT 58.379765 24.463440 22,375 9 317 -2752
2020-02-18 13:17:46 GMT 58.373154 24.461414 22,600 9 317 -2816
2020-02-18 13:17:41 GMT 58.365372 24.459023 22,850 9 317 -2816
2020-02-18 13:17:36 GMT 58.357224 24.456631 24,500 9 318 -2816
2020-02-18 13:17:30 GMT 58.350540 24.454592 23,325 9 318 -2816
2020-02-18 13:17:25 GMT 58.342667 24.452200 23,600 8 319 -2816
2020-02-18 13:17:20 GMT 58.335308 24.449982 23,825 8 319 -2816
2020-02-18 13:17:16 GMT 58.329350 24.448151 24,025 9 319 -2944
2020-02-18 13:17:10 GMT 58.320179 24.445129 24,275 10 320 -3008
2020-02-18 13:17:06 GMT 58.314194 24.442898 24,550 11 320 -2880
2020-02-18 13:17:00 GMT 58.305771 24.439529 24,825 11 320 -1728
2020-02-18 13:16:54 GMT 58.290524 24.433960 24,975 10 318 64
2020-02-18 13:16:49 GMT 58.290524 24.433960 25,000 10 318 64
2020-02-18 13:16:46 GMT 58.284332 24.431763 25,000 10 319 -64
2020-02-18 13:16:39 GMT 58.276188 24.428833 25,000 10 319 -64
2020-02-18 13:16:35 GMT 58.269947 24.426636 25,000 10 319 0
2020-02-18 13:16:31 GMT 58.262592 24.424072 25,000 10 319 64
2020-02-18 13:16:23 GMT 58.253143 24.420776 25,000 10 319 -64
2020-02-18 13:16:18 GMT 58.246124 24.418266 25,000 10 319 64
2020-02-18 13:16:14 GMT 58.240173 24.416227 25,000 10 319 64
2020-02-18 13:16:08 GMT 58.231403 24.413269 25,000 10 320 -64
2020-02-18 13:16:04 GMT 58.225723 24.411255 25,000 10 320 0
2020-02-18 13:15:58 GMT 58.217018 24.408325 25,000 10 320 0
2020-02-18 13:15:54 GMT 58.209476 24.405762 25,000 10 319 -64
2020-02-18 13:15:48 GMT 58.201611 24.403107 25,000 10 319 64
2020-02-18 13:15:44 GMT 58.195652 24.401093 25,000 10 319 64
2020-02-18 13:15:41 GMT 58.186947 24.398163 25,000 10 319 0
2020-02-18 13:15:38 GMT 58.181488 24.396294 25,000 10 319 -64
2020-02-18 13:15:34 GMT 58.181488 24.396294 25,000 10 319 -64
2020-02-18 13:15:28 GMT 58.172470 24.393282 25,000 9 319 0
2020-02-18 13:15:18 GMT 58.157639 24.388231 25,000 10 320 0
2020-02-18 13:15:13 GMT 58.150589 24.385803 25,000 10 319 -64
2020-02-18 13:15:07 GMT 58.142303 24.383057 25,000 9 319 0
2020-02-18 13:15:04 GMT 58.135986 24.380966 25,000 9 319 0
2020-02-18 13:14:57 GMT 58.127964 24.378387 25,000 9 319 0
2020-02-18 13:14:53 GMT 58.122208 24.376448 25,000 9 319 64
2020-02-18 13:14:47 GMT 58.108658 24.371929 25,000 10 320 0
2020-02-18 13:14:41 GMT 58.104904 24.370687 25,000 10 320 0
2020-02-18 13:14:36 GMT 58.097900 24.368296 25,000 10 320 0
2020-02-18 13:14:33 GMT 58.092636 24.366613 25,000 10 320 64
2020-02-18 13:14:27 GMT 58.083481 24.363422 25,000 10 321 -64
2020-02-18 13:14:22 GMT 58.076752 24.361118 25,000 10 322 0
2020-02-18 13:14:16 GMT 58.068050 24.358154 25,000 10 322 -64
2020-02-18 13:14:12 GMT 58.062187 24.356049 25,000 10 322 64
2020-02-18 13:14:05 GMT 58.052628 24.352701 25,000 10 322 0
2020-02-18 13:14:02 GMT 58.046078 24.350372 25,000 10 322 0
2020-02-18 13:13:56 GMT 58.038116 24.347565 25,000 10 322 -64
2020-02-18 13:13:51 GMT 58.031601 24.345245 25,000 10 322 0
2020-02-18 13:13:45 GMT 58.016098 24.339661 25,000 10 322 0
2020-02-18 13:13:41 GMT 58.016098 24.339661 25,000 10 322 0
2020-02-18 13:13:37 GMT 58.010094 24.337463 25,000 10 322 0
2020-02-18 13:13:34 GMT 58.005577 24.335815 25,000 11 323 -64
2020-02-18 13:13:31 GMT 58.002506 24.334717 25,000 10 322 -64
2020-02-18 13:13:27 GMT 57.995617 24.332153 25,000 11 323 -64
2020-02-18 13:13:24 GMT 57.991013 24.330463 25,000 11 322 0
2020-02-18 13:13:17 GMT 57.980072 24.326387 25,000 11 322 64
2020-02-18 13:13:13 GMT 57.976204 24.325012 25,000 10 321 0
2020-02-18 13:13:10 GMT 57.970337 24.322815 25,000 10 321 0
2020-02-18 13:13:03 GMT 57.960205 24.318947 25,000 11 322 0
2020-02-18 13:12:56 GMT 57.950729 24.315491 25,000 10 321 64
2020-02-18 13:12:52 GMT 57.945850 24.313751 25,000 10 321 64
2020-02-18 13:12:44 GMT 57.933517 24.309465 25,000 10 322 -64
2020-02-18 13:12:40 GMT 57.927063 24.307251 25,000 9 321 0
2020-02-18 13:12:34 GMT 57.918804 24.304688 25,000 9 321 0
2020-02-18 13:12:29 GMT 57.911915 24.302582 25,000 8 321 0
2020-02-18 13:12:26 GMT 57.905685 24.300873 25,000 8 321 -64
2020-02-18 13:12:22 GMT 57.901291 24.299721 25,000 6 321 0
2020-02-18 13:12:14 GMT 57.888931 24.296972 25,000 6 321 64
2020-02-18 13:12:09 GMT 57.881798 24.295349 25,000 6 323 64
2020-02-18 13:12:03 GMT 57.873695 24.293610 25,000 6 321 0
2020-02-18 13:11:59 GMT 57.867645 24.292236 25,000 6 322 0
2020-02-18 13:11:53 GMT 57.858055 24.290222 25,000 6 323 64
2020-02-18 13:11:48 GMT 57.850708 24.288645 25,000 6 324 0
2020-02-18 13:11:43 GMT 57.843391 24.287018 25,000 6 324 -64
2020-02-18 13:11:40 GMT 57.838734 24.286102 25,000 6 325 64
2020-02-18 13:11:33 GMT 57.828911 24.283997 25,000 6 325 0
2020-02-18 13:11:27 GMT 57.818390 24.281822 25,000 6 325 0
2020-02-18 13:11:22 GMT 57.812988 24.280760 25,000 6 329 0
2020-02-18 13:11:19 GMT 57.808044 24.279697 25,000 6 326 0
2020-02-18 13:11:12 GMT 57.797379 24.277481 25,000 6 328 64
2020-02-18 13:11:07 GMT 57.789871 24.275887 25,000 6 328 0
2020-02-18 13:11:02 GMT 57.782776 24.274469 25,000 6 328 64
2020-02-18 13:10:58 GMT 57.776215 24.273102 25,000 6 329 0
2020-02-18 13:10:52 GMT 57.765415 24.270905 25,000 6 331 64
2020-02-18 13:10:48 GMT 57.761124 24.270039 25,000 6 330 0
2020-02-18 13:10:42 GMT 57.751831 24.268267 25,000 6 331 0
2020-02-18 13:10:38 GMT 57.745815 24.267059 25,000 5 332 0
2020-02-18 13:10:31 GMT 57.735577 24.265137 25,000 5 333 0
2020-02-18 13:10:27 GMT 57.729355 24.264013 25,000 5 334 -64
2020-02-18 13:10:21 GMT 57.720612 24.262447 25,000 5 334 -128
2020-02-18 13:10:15 GMT 57.709991 24.260559 25,000 5 334 0
2020-02-18 13:10:11 GMT 57.705132 24.259584 25,000 5 334 0
2020-02-18 13:10:05 GMT 57.692699 24.257193 25,000 6 334 0
2020-02-18 13:10:02 GMT 57.691086 24.256868 25,000 6 336 0
2020-02-18 13:09:58 GMT 57.684834 24.255508 25,000 6 336 0
2020-02-18 13:09:54 GMT 57.677353 24.253778 25,000 6 336 0
2020-02-18 13:09:51 GMT 57.673370 24.252920 25,000 7 336 64
2020-02-18 13:09:45 GMT 57.663345 24.250517 25,000 7 337 64
2020-02-18 13:09:41 GMT 57.657970 24.249218 25,000 7 338 0
2020-02-18 13:09:36 GMT 57.649639 24.247269 25,000 6 338 0
2020-02-18 13:09:30 GMT 57.634277 24.243902 25,000 6 335 0
2020-02-18 13:09:27 GMT 57.634277 24.243902 25,000 6 336 0
2020-02-18 13:09:19 GMT 57.624454 24.241865 25,000 6 335 0
2020-02-18 13:09:16 GMT 57.619034 24.240646 25,000 6 330 64
2020-02-18 13:09:12 GMT 57.605530 24.237814 24,975 6 325 64
2020-02-18 13:09:07 GMT 57.605530 24.237814 24,975 6 326 64
2020-02-18 13:09:03 GMT 57.599644 24.236549 24,975 6 326 64
2020-02-18 13:09:00 GMT 57.595173 24.235662 24,975 6 323 64
2020-02-18 13:08:56 GMT 57.588867 24.234295 24,975 6 321 64
2020-02-18 13:08:50 GMT 57.580215 24.232492 24,950 6 316 256
2020-02-18 13:08:47 GMT 57.572662 24.230947 24,950 6 314 448
2020-02-18 13:08:39 GMT 57.564514 24.229317 24,925 6 311 256
2020-02-18 13:08:35 GMT 57.558769 24.228220 24,925 5 306 960
2020-02-18 13:08:28 GMT 57.549644 24.226360 24,825 6 305 1600
2020-02-18 13:08:24 GMT 57.544373 24.225283 24,700 6 305 1472
2020-02-18 13:08:19 GMT 57.536610 24.223701 24,500 6 305 1408
2020-02-18 13:08:14 GMT 57.529221 24.222279 24,425 6 305 1408
2020-02-18 13:08:08 GMT 57.521763 24.220690 24,325 6 305 1472
2020-02-18 13:08:05 GMT 57.516083 24.219532 24,200 6 305 1344
2020-02-18 13:08:00 GMT 57.510040 24.218245 24,050 6 304 1280
2020-02-18 13:07:54 GMT 57.501698 24.216524 23,975 6 304 1344
2020-02-18 13:07:48 GMT 57.493317 24.214842 23,175 6 304 1408
2020-02-18 13:07:43 GMT 57.486336 24.213337 23,725 6 304 1344
2020-02-18 13:07:38 GMT 57.479279 24.211979 23,650 6 303 1408
2020-02-18 13:07:33 GMT 57.472507 24.210588 23,500 6 303 1600
2020-02-18 13:07:28 GMT 57.465664 24.209261 23,375 6 303 1600
2020-02-18 13:07:24 GMT 57.458450 24.207754 23,225 6 303 1472
2020-02-18 13:07:18 GMT 57.450989 24.206228 23,100 6 303 1408
2020-02-18 13:07:13 GMT 57.443756 24.204769 23,000 6 302 1408
2020-02-18 13:07:07 GMT 57.436619 24.203411 22,825 6 302 1536
2020-02-18 13:07:02 GMT 57.428604 24.201765 22,675 6 301 1472
2020-02-18 13:06:57 GMT 57.422184 24.200399 22,600 6 301 1472
2020-02-18 13:06:52 GMT 57.415924 24.199104 22,450 6 300 1536
2020-02-18 13:06:48 GMT 57.410175 24.197830 21,500 5 297 1408
2020-02-18 13:06:43 GMT 57.402027 24.196148 22,200 6 300 1600
2020-02-18 13:06:39 GMT 57.395920 24.194813 22,075 6 300 1600
2020-02-18 13:06:32 GMT 57.382244 24.191895 21,725 6 298 1408
2020-02-18 13:06:28 GMT 57.377171 24.190830 21,725 6 298 1408
2020-02-18 13:06:21 GMT 57.373211 24.190035 21,650 6 298 1472
2020-02-18 13:06:17 GMT 57.366714 24.188719 21,475 5 297 1408
2020-02-18 13:06:12 GMT 57.359943 24.187376 21,400 5 296 1536
2020-02-18 13:06:06 GMT 57.352798 24.185972 21,275 6 296 1664
2020-02-18 13:06:02 GMT 57.346252 24.184685 21,150 6 296 1664
2020-02-18 13:05:58 GMT 57.340767 24.183565 21,025 6 295 1664
2020-02-18 13:05:52 GMT 57.332108 24.181852 20,850 6 295 1792
2020-02-18 13:05:46 GMT 57.324646 24.180307 20,700 6 295 1792
2020-02-18 13:05:41 GMT 57.317871 24.178934 20,600 6 295 1728
2020-02-18 13:05:36 GMT 57.311234 24.177561 20,400 6 294 1856
2020-02-18 13:05:31 GMT 57.304321 24.176188 20,250 6 294 1792
2020-02-18 13:05:25 GMT 57.296356 24.174557 20,075 6 294 1792
2020-02-18 13:05:16 GMT 57.284042 24.172153 19,375 6 294 1792
2020-02-18 13:05:13 GMT 57.278431 24.171074 19,675 5 294 1856
2020-02-18 13:05:10 GMT 57.276077 24.170694 19,600 5 294 1856
2020-02-18 13:05:05 GMT 57.269123 24.169390 19,450 6 294 1792
2020-02-18 13:05:00 GMT 57.262882 24.168150 19,325 6 294 1792
2020-02-18 13:04:54 GMT 57.254837 24.166574 19,150 6 293 1856
2020-02-18 13:04:49 GMT 57.248173 24.165226 19,075 6 293 1920
2020-02-18 13:04:43 GMT 57.240051 24.163570 18,800 6 292 2048
2020-02-18 13:04:39 GMT 57.234348 24.162392 18,650 6 292 2048
2020-02-18 13:04:35 GMT 57.228470 24.161167 18,500 6 292 2048
2020-02-18 13:04:29 GMT 57.220985 24.159555 18,325 6 292 2048
2020-02-18 13:04:22 GMT 57.211807 24.157648 18,075 6 293 1984
2020-02-18 13:04:19 GMT 57.206322 24.156454 17,950 6 292 2048
2020-02-18 13:04:14 GMT 57.201553 24.155416 17,825 6 292 1984
2020-02-18 13:04:08 GMT 57.193150 24.153708 17,625 6 292 1984
2020-02-18 13:03:58 GMT 57.180038 24.150953 17,300 6 292 1856
2020-02-18 13:03:52 GMT 57.171501 24.149191 17,100 6 291 1920
2020-02-18 13:03:48 GMT 57.166149 24.148039 16,975 6 291 1920
2020-02-18 13:03:44 GMT 57.160217 24.146748 16,825 6 291 2048
2020-02-18 13:03:38 GMT 57.151718 24.144848 16,600 6 291 2048
2020-02-18 13:03:32 GMT 57.144470 24.143314 16,425 6 290 2112
2020-02-18 13:03:28 GMT 57.138519 24.141941 16,275 6 289 2112
2020-02-18 13:03:24 GMT 57.133713 24.140911 16,150 6 289 2112
2020-02-18 13:03:20 GMT 57.129139 24.139887 16,025 6 289 2176
2020-02-18 13:03:17 GMT 57.123974 24.138735 15,875 6 289 2176
2020-02-18 13:03:12 GMT 57.118607 24.137564 15,725 6 289 2176
2020-02-18 13:03:07 GMT 57.110550 24.135761 15,500 6 288 2176
2020-02-18 13:03:02 GMT 57.105305 24.134659 15,350 6 288 2176
2020-02-18 13:02:50 GMT 57.089848 24.131470 14,950 6 287 2048
2020-02-18 13:02:47 GMT 57.084682 24.130495 14,825 6 287 2048
2020-02-18 13:02:36 GMT 57.070019 24.127483 14,425 6 287 2048
2020-02-18 13:02:30 GMT 57.062576 24.125977 14,225 6 287 2112
2020-02-18 13:02:26 GMT 57.056843 24.124825 14,075 6 286 2176
2020-02-18 13:02:12 GMT 57.039093 24.121599 13,600 5 286 2112
2020-02-18 13:02:05 GMT 57.029114 24.119968 13,350 4 285 2112
2020-02-18 13:01:47 GMT 57.005997 24.116449 12,750 5 284 1856
2020-02-18 13:01:41 GMT 56.998001 24.115168 12,575 2 278 1920
2020-02-18 13:01:33 GMT 56.987713 24.113661 12,475 4 281 1920
2020-02-18 13:01:30 GMT 56.983292 24.113188 12,200 2 278 1920
2020-02-18 13:01:24 GMT 56.976124 24.112686 12,000 2 278 1920
2020-02-18 13:01:18 GMT 56.968552 24.112501 11,825 0 274 1792
2020-02-18 13:01:08 GMT 56.956146 24.113445 11,525 356 267 1792
2020-02-18 13:01:01 GMT 56.946934 24.115522 11,300 347 257 1728
2020-02-18 13:00:58 GMT 56.943859 24.116585 11,200 349 260 1792
2020-02-18 13:00:52 GMT 56.937252 24.119509 11,025 345 256 1600
2020-02-18 13:00:49 GMT 56.932922 24.122078 10,925 339 249 1216
2020-02-18 13:00:38 GMT 56.922775 24.130783 10,725 330 236 1920
2020-02-18 13:00:26 GMT 56.912018 24.143658 10,300 325 228 2304
2020-02-18 13:00:17 GMT 56.904282 24.153872 9,950 27 242 2816
2020-02-18 13:00:12 GMT 56.899918 24.159201 9,775 329 224 2112
2020-02-18 13:00:00 GMT 56.888699 24.168859 9,350 350 227 1920

Making use of Plane Finder data

You are free to use the raw flight data, aircraft information and images provided in this report for your own purposes provided the data is correctly attributed to Plane Finder. We ask that you please credit Plane Finder and link to planefinder.net in close proximity to the content.

Optionally one of the following logos (no smaller then 150x24px) can be used and must link to planefinder.net

Embedding the Plane Finder map

You are welcome to embed the Plane Finder playback map on your website to offer visitors a more interactive experience. We suggest using the following HTML code:

<iframe src="//planefinder.net/data/report/BT305-YL-BAF-7700-squawk-2020-02-18/map" width="800" height="600" seamless="seamless"></iframe>

Where our data comes from

Plane Finder has a global network of data feeds and antenna radars that receive data broadcast directly from aircraft. The primary technologies used are ADS-B and MLAT. We also show feeds from the FAA and a FLARM glider feed.

Click here to find out more about the Plane Finder network.

How we collect our data